Time;durP1;ratioP1;P1;durP2;ratioP2;P2;SDS_P1;SDS_P2;PMS_P1;PMS_P2;Temp;Humidity;BMP_temperature;BMP_pressure;BME280_temperature;BME280_humidity;BME280_pressure;Samples;Min_cycle;Max_cycle;Signal;HPM_P1;HPM_P2
2022/08/07 00:01:33;;;;;;;17.70;7.10;;;24.50;62.90;;;24.99;48.12;94689.66;5019313;28;20495;-60
2022/08/07 00:04:00;;;;;;;8.60;7.70;;;24.40;62.80;;;24.94;48.89;94691.41;5022102;28;20945;-61
2022/08/07 00:06:28;;;;;;;15.33;7.73;;;24.30;63.30;;;24.89;49.14;94684.03;5017305;28;20481;-59
2022/08/07 00:08:55;;;;;;;9.50;7.50;;;24.30;63.50;;;24.85;48.46;94689.06;5020083;28;20510;-58
2022/08/07 00:11:22;;;;;;;9.63;7.20;;;24.30;63.50;;;24.84;48.58;94678.53;5020905;28;20475;-59
2022/08/07 00:13:49;;;;;;;8.27;7.47;;;24.20;63.70;;;24.83;49.18;94684.97;5020341;28;20519;-59
2022/08/07 00:16:18;;;;;;;12.63;6.53;;;24.20;64.30;;;24.82;49.09;94688.72;5022086;28;20523;-59
2022/08/07 00:18:45;;;;;;;13.30;7.70;;;24.20;64.40;;;24.79;48.95;94678.44;5014667;28;20449;-60
2022/08/07 00:21:12;;;;;;;7.17;6.47;;;24.20;65.20;;;24.77;49.19;94685.91;5018308;28;20465;-59
2022/08/07 00:23:40;;;;;;;9.50;7.17;;;24.20;64.40;;;24.74;49.17;94679.13;5021171;28;20518;-58
2022/08/07 00:26:09;;;;;;;16.13;7.93;;;24.10;64.50;;;24.73;49.53;94695.50;5020124;28;20968;-59
2022/08/07 00:28:36;;;;;;;9.50;6.60;;;24.10;65.10;;;24.71;50.35;94690.34;5019160;28;20455;-59
2022/08/07 00:31:07;;;;;;;8.37;7.13;;;24.10;65.60;;;24.68;50.25;94694.31;5016984;28;20453;-59
2022/08/07 00:33:36;;;;;;;8.67;7.77;;;24.10;65.60;;;24.67;49.68;94706.13;5021204;28;20974;-59
2022/08/07 00:36:05;;;;;;;8.50;7.43;;;24.00;65.70;;;24.61;50.34;94709.72;5018371;28;20962;-60
2022/08/07 00:38:33;;;;;;;9.60;6.40;;;24.00;65.50;;;24.56;50.56;94714.16;5020741;28;20446;-60
2022/08/07 00:41:01;;;;;;;7.30;6.70;;;24.00;65.60;;;24.50;50.05;94710.50;5018778;28;20849;-58
2022/08/07 00:43:28;;;;;;;10.17;7.77;;;23.90;65.90;;;24.48;50.07;94704.56;5019363;28;20489;-60
2022/08/07 00:45:55;;;;;;;7.27;6.57;;;23.90;66.20;;;24.46;50.75;94706.63;5017746;28;20457;-59
2022/08/07 00:48:22;;;;;;;6.37;5.90;;;23.90;66.50;;;24.43;50.17;94702.56;5018215;28;20480;-60
2022/08/07 00:50:51;;;;;;;11.83;6.50;;;23.90;66.70;;;24.42;50.56;94700.09;5022034;28;20977;-60
2022/08/07 00:53:18;;;;;;;7.40;6.70;;;23.80;66.50;;;24.42;50.90;94700.91;5026929;28;20526;-58
2022/08/07 00:55:45;;;;;;;7.53;6.93;;;23.80;66.90;;;24.44;50.47;94708.75;5022821;28;20880;-59
2022/08/07 00:58:12;;;;;;;6.70;6.20;;;23.80;66.90;;;24.44;50.52;94708.75;5027133;28;20490;-58
2022/08/07 01:00:40;;;;;;;6.70;6.10;;;23.80;67.30;;;24.44;50.55;94693.41;5021445;28;20453;-59
2022/08/07 01:03:07;;;;;;;8.67;7.13;;;23.80;67.20;;;24.44;50.95;94698.78;5024742;28;20602;-59
2022/08/07 01:05:34;;;;;;;10.83;7.40;;;23.80;67.30;;;24.43;51.27;94702.56;5022289;28;20467;-58
2022/08/07 01:08:03;;;;;;;8.80;6.60;;;23.80;67.40;;;24.42;50.77;94700.91;5024095;28;20477;-60
2022/08/07 01:10:30;;;;;;;12.43;7.10;;;23.80;67.60;;;24.41;51.38;94704.63;5021160;28;20503;-59
2022/08/07 01:12:57;;;;;;;7.10;6.50;;;23.80;67.80;;;24.40;50.79;94708.41;5025892;28;21023;-59
2022/08/07 01:15:25;;;;;;;8.47;7.40;;;23.80;68.10;;;24.40;51.09;94713.78;5020028;28;20543;-60
2022/08/07 01:17:52;;;;;;;10.70;7.70;;;23.80;68.50;;;24.39;51.20;94716.69;5024888;28;20477;-60
2022/08/07 01:20:22;;;;;;;10.10;7.67;;;23.80;68.80;;;24.36;52.06;94715.28;5023821;28;20452;-58
2022/08/07 01:22:51;;;;;;;11.60;7.40;;;23.70;68.90;;;24.33;52.22;94711.16;5023352;28;21097;-60
2022/08/07 01:25:18;;;;;;;9.90;7.53;;;23.70;69.20;;;24.30;52.25;94708.94;5019692;28;20445;-58
2022/08/07 01:27:45;;;;;;;7.47;6.60;;;23.70;69.20;;;24.29;51.77;94711.84;5023229;28;20479;-58
2022/08/07 01:30:13;;;;;;;14.83;7.90;;;23.70;69.30;;;24.28;52.23;94723.66;5020801;28;20487;-59
2022/08/07 01:32:40;;;;;;;12.33;7.73;;;23.70;69.30;;;24.27;51.43;94722.81;5022946;28;21086;-60
2022/08/07 01:35:09;;;;;;;7.80;7.10;;;23.70;69.30;;;24.26;52.09;94723.91;5020387;28;20449;-59
2022/08/07 01:37:36;;;;;;;8.73;7.10;;;23.70;69.50;;;24.27;51.66;94719.34;5020060;28;20476;-59
2022/08/07 01:40:07;;;;;;;12.40;8.57;;;23.60;69.60;;;24.26;51.87;94723.91;5022693;28;20514;-60
2022/08/07 01:42:34;;;;;;;7.33;6.63;;;23.60;69.50;;;24.27;52.04;94724.72;5021686;28;21012;-59
2022/08/07 01:45:02;;;;;;;7.67;6.73;;;23.60;69.60;;;24.26;52.27;94729.28;5022561;28;20820;-58
2022/08/07 01:47:29;;;;;;;6.97;6.13;;;23.60;69.80;;;24.27;52.40;94736.28;5020454;28;20472;-58
2022/08/07 01:49:56;;;;;;;8.10;7.40;;;23.70;69.90;;;24.25;51.84;94733.00;5022370;28;20445;-59
2022/08/07 01:52:24;;;;;;;8.53;7.13;;;23.70;69.90;;;24.26;51.66;94758.84;5019062;28;20473;-59
2022/08/07 01:54:51;;;;;;;8.00;6.03;;;23.60;70.00;;;24.25;51.98;94780.56;5022827;28;20717;-59
2022/08/07 01:57:23;;;;;;;8.23;7.07;;;23.60;70.50;;;24.23;52.24;94788.84;5021599;28;20497;-58
2022/08/07 01:59:54;;;;;;;14.10;7.73;;;23.60;70.50;;;24.16;51.88;94801.56;5022150;28;20441;-59
2022/08/07 02:02:27;;;;;;;8.80;7.00;;;23.50;70.40;;;24.10;52.52;94821.28;5022853;28;20468;-60
2022/08/07 02:04:58;;;;;;;6.40;5.80;;;23.50;70.40;;;24.05;51.86;94818.44;5020916;28;20529;-60
2022/08/07 02:07:29;;;;;;;9.80;7.33;;;23.40;70.20;;;24.00;52.56;94808.38;5018705;28;20472;-59
2022/08/07 02:09:56;;;;;;;8.57;7.87;;;23.40;70.20;;;23.94;52.31;94807.41;5020415;28;20454;-59
2022/08/07 02:12:25;;;;;;;8.93;8.13;;;23.30;70.30;;;23.86;52.10;94821.13;5022166;28;20480;-58
2022/08/07 02:14:54;;;;;;;14.23;7.77;;;23.30;70.20;;;23.75;52.58;94824.50;5021004;28;20457;-59
2022/08/07 02:17:22;;;;;;;8.80;7.90;;;23.20;71.20;;;23.65;53.30;94813.50;5024805;28;20510;-59
2022/08/07 02:19:49;;;;;;;8.50;7.70;;;23.10;72.80;;;23.60;54.03;94811.47;5020845;28;20999;-59
2022/08/07 02:22:18;;;;;;;8.93;8.10;;;23.10;73.10;;;23.54;54.16;94798.94;5026051;28;20476;-60
2022/08/07 02:24:46;;;;;;;8.70;7.90;;;23.00;73.60;;;23.46;54.19;94783.94;5022596;28;20544;-59
2022/08/07 02:27:15;;;;;;;12.93;8.40;;;22.90;74.20;;;23.38;55.57;94770.81;5022576;28;20480;-59
2022/08/07 02:29:43;;;;;;;7.93;7.10;;;22.80;75.50;;;23.32;56.04;94760.97;5023256;28;20946;-59
2022/08/07 02:32:11;;;;;;;13.90;8.67;;;22.80;77.90;;;23.22;56.55;94753.41;5022011;28;20487;-60
2022/08/07 02:34:38;;;;;;;12.40;7.90;;;22.70;77.50;;;23.13;56.93;94738.63;5019101;28;20465;-60
2022/08/07 02:37:07;;;;;;;12.43;8.10;;;22.60;79.30;;;23.04;57.50;94733.53;5019247;28;20477;-58
2022/08/07 02:39:35;;;;;;;9.53;8.00;;;22.50;80.80;;;22.96;58.55;94738.34;5018884;28;20510;-60
2022/08/07 02:42:02;;;;;;;9.13;8.33;;;22.40;83.00;;;22.85;58.78;94730.00;5017687;28;20505;-59
2022/08/07 02:44:29;;;;;;;8.70;7.93;;;22.30;84.00;;;22.74;59.35;94744.09;5024765;28;20566;-58
2022/08/07 02:47:00;;;;;;;9.00;8.20;;;22.30;85.60;;;22.68;59.88;94751.19;5021011;28;20469;-59
2022/08/07 02:49:28;;;;;;;9.77;8.17;;;22.20;88.00;;;22.68;59.79;94761.06;5017625;28;20445;-58
2022/08/07 02:51:55;;;;;;;9.57;7.70;;;22.10;89.50;;;22.69;60.04;94768.06;5019635;28;20530;-59
2022/08/07 02:54:22;;;;;;;8.93;8.13;;;22.10;90.00;;;22.68;60.35;94766.41;5024182;28;20526;-59
2022/08/07 02:56:50;;;;;;;8.33;7.57;;;22.10;90.70;;;22.72;60.28;94763.09;5017554;28;21003;-59
2022/08/07 02:59:18;;;;;;;9.00;8.13;;;22.10;91.30;;;22.78;61.24;94755.22;5019741;28;20460;-60
2022/08/07 03:01:46;;;;;;;12.93;8.90;;;22.20;92.40;;;22.83;61.56;94748.16;5022687;28;20477;-60
2022/08/07 03:04:15;;;;;;;10.50;8.50;;;22.30;93.10;;;22.87;62.11;94740.50;5019954;28;20495;-59
2022/08/07 03:06:42;;;;;;;10.63;9.50;;;22.30;93.60;;;22.88;61.70;94737.59;5019738;28;20478;-59
2022/08/07 03:09:09;;;;;;;9.13;8.23;;;22.30;93.50;;;22.88;61.92;94734.91;5022277;28;20484;-59
2022/08/07 03:11:37;;;;;;;8.53;7.63;;;22.30;94.00;;;22.90;62.68;94751.59;5020069;28;20534;-58
2022/08/07 03:14:04;;;;;;;16.47;8.20;;;22.30;95.00;;;22.93;61.87;94761.09;5021186;28;20449;-58
2022/08/07 03:16:31;;;;;;;9.93;8.90;;;22.30;94.60;;;22.95;62.84;94752.81;5019238;28;20472;-58
2022/08/07 03:18:59;;;;;;;10.23;8.50;;;22.40;95.00;;;22.99;62.18;94746.78;5020412;28;20448;-58
2022/08/07 03:21:28;;;;;;;10.53;9.53;;;22.40;95.00;;;23.02;62.69;94745.50;5019820;28;20481;-58
2022/08/07 03:23:57;;;;;;;9.17;8.00;;;22.40;95.00;;;23.06;62.94;94752.09;5021702;28;20580;-59
2022/08/07 03:26:25;;;;;;;9.63;8.03;;;22.50;95.40;;;23.08;62.50;94744.63;5020299;28;20672;-57
2022/08/07 03:28:53;;;;;;;11.13;9.00;;;22.50;95.60;;;23.12;62.71;94745.88;5019678;28;20453;-60
2022/08/07 03:31:21;;;;;;;9.80;8.13;;;22.50;95.50;;;23.15;62.99;94744.63;5020615;28;20546;-59
2022/08/07 03:33:50;;;;;;;12.63;8.20;;;22.60;95.70;;;23.18;62.83;94745.00;5021569;28;20464;-59
2022/08/07 03:36:17;;;;;;;9.53;8.70;;;22.60;96.20;;;23.20;63.23;94740.22;5021817;28;20531;-60
2022/08/07 03:38:46;;;;;;;9.33;8.50;;;22.60;96.30;;;23.22;63.06;94743.50;5021704;28;20536;-59
2022/08/07 03:41:14;;;;;;;13.73;9.37;;;22.60;96.30;;;23.25;63.65;94750.28;5020472;28;20530;-58
2022/08/07 03:43:41;;;;;;;13.63;8.50;;;22.70;96.60;;;23.27;64.06;94753.59;5015218;28;20511;-60
2022/08/07 03:46:08;;;;;;;9.67;8.87;;;22.70;97.20;;;23.29;63.49;94748.00;5018025;28;20473;-59
2022/08/07 03:48:35;;;;;;;9.60;8.70;;;22.70;97.00;;;23.32;63.67;94755.59;5017771;28;20469;-59
2022/08/07 03:51:03;;;;;;;9.57;8.30;;;22.70;96.90;;;23.34;63.84;94758.88;5019290;28;20474;-58
2022/08/07 03:53:30;;;;;;;10.60;7.97;;;22.70;97.10;;;23.36;63.88;94754.94;5021994;28;20456;-59
2022/08/07 03:55:59;;;;;;;9.40;8.67;;;22.80;97.00;;;23.40;63.39;94761.47;5018400;28;20452;-59
2022/08/07 03:58:26;;;;;;;11.70;9.07;;;22.80;97.00;;;23.43;63.71;94763.72;5019372;28;20530;-61
2022/08/07 04:00:55;;;;;;;13.33;8.50;;;22.80;97.10;;;23.47;63.75;94764.13;5019937;28;20453;-57
2022/08/07 04:03:23;;;;;;;9.27;8.37;;;22.90;97.10;;;23.51;63.16;94759.91;5017551;28;20497;-59
2022/08/07 04:05:50;;;;;;;9.23;8.33;;;22.90;97.10;;;23.57;63.99;94764.41;5018023;28;20457;-61
2022/08/07 04:08:17;;;;;;;7.10;6.40;;;23.00;97.80;;;23.61;63.59;94759.41;5019596;28;20484;-60
2022/08/07 04:10:46;;;;;;;12.73;8.10;;;23.00;97.20;;;23.68;62.84;94768.19;5017812;28;20992;-59
2022/08/07 04:13:15;;;;;;;10.07;7.00;;;23.00;97.20;;;23.71;62.67;94769.63;5018138;28;20476;-59
2022/08/07 04:15:42;;;;;;;7.60;6.87;;;23.10;97.10;;;23.75;63.12;94770.81;5022910;28;20548;-58
2022/08/07 04:18:11;;;;;;;7.87;7.17;;;23.10;96.90;;;23.80;62.71;94773.66;5016743;28;20466;-59
2022/08/07 04:20:39;;;;;;;8.60;7.70;;;23.20;97.00;;;23.85;63.14;94776.50;5018333;28;20472;-59
2022/08/07 04:23:06;;;;;;;8.80;6.77;;;23.20;97.10;;;23.87;62.82;94771.72;5017558;28;21169;-59
2022/08/07 04:25:33;;;;;;;7.87;7.17;;;23.30;97.10;;;23.90;62.87;94776.66;5027099;28;20774;-58
2022/08/07 04:28:00;;;;;;;7.27;6.60;;;23.30;97.10;;;23.92;62.62;94785.31;5028590;28;20497;-59
2022/08/07 04:30:29;;;;;;;7.33;6.53;;;23.30;97.10;;;23.95;62.32;94786.72;5027807;28;20876;-59
2022/08/07 04:32:56;;;;;;;8.53;7.73;;;23.30;96.90;;;23.98;62.89;94792.47;5020949;28;20473;-58
2022/08/07 04:35:23;;;;;;;6.40;5.90;;;23.40;97.00;;;24.01;62.20;94795.75;5024913;28;20460;-60
2022/08/07 04:37:51;;;;;;;7.10;6.50;;;23.40;96.90;;;24.04;62.66;94792.63;5024387;28;20473;-61
2022/08/07 04:40:18;;;;;;;7.77;6.90;;;23.40;96.70;;;24.07;62.39;94794.84;5025263;28;20495;-60
2022/08/07 04:42:45;;;;;;;8.20;7.50;;;23.50;96.80;;;24.08;62.55;94800.00;5025288;28;20488;-59
2022/08/07 04:45:12;;;;;;;20.57;8.00;;;23.50;96.70;;;24.10;62.05;94805.16;5025022;28;21125;-60
2022/08/07 04:47:47;;;;;;;9.07;7.00;;;23.50;96.80;;;24.13;62.58;94799.31;5026038;28;20464;-60
2022/08/07 04:50:18;;;;;;;8.20;7.40;;;23.50;96.60;;;24.16;61.92;94798.88;5022024;28;20453;-60
2022/08/07 04:52:49;;;;;;;8.07;7.40;;;23.50;96.70;;;24.19;62.34;94798.41;5028094;28;20464;-59
2022/08/07 04:55:22;;;;;;;8.97;8.10;;;23.60;96.70;;;24.21;62.57;94798.19;5023034;28;20450;-59
2022/08/07 04:57:52;;;;;;;9.00;8.10;;;23.60;96.70;;;24.23;62.24;94810.38;5024282;28;20477;-60
2022/08/07 05:00:24;;;;;;;9.73;8.13;;;23.60;96.90;;;24.30;62.23;94810.28;5028024;28;20457;-59
2022/08/07 05:03:00;;;;;;;9.40;8.40;;;23.70;96.90;;;24.37;63.10;94807.47;5025337;28;20526;-58
2022/08/07 05:05:31;;;;;;;8.30;7.60;;;23.70;97.10;;;24.44;61.59;94813.59;5023411;28;20534;-59
2022/08/07 05:08:00;;;;;;;8.47;7.10;;;23.80;96.60;;;24.53;61.36;94818.41;5022635;28;20543;-58
2022/08/07 05:10:32;;;;;;;7.63;6.83;;;23.90;96.40;;;24.61;60.82;94817.31;5025459;28;21015;-60
2022/08/07 05:13:03;;;;;;;11.60;7.40;;;24.00;96.10;;;24.70;60.61;94807.06;5031586;28;20579;-58
2022/08/07 05:15:34;;;;;;;7.17;6.57;;;24.10;95.80;;;24.82;60.33;94812.47;5025743;28;20461;-62
2022/08/07 05:18:06;;;;;;;9.17;8.37;;;24.10;95.60;;;24.96;60.26;94813.91;5024763;28;20477;-59
2022/08/07 05:20:39;;;;;;;14.63;8.17;;;24.30;95.60;;;25.10;60.26;94819.91;5026591;28;20440;-60
2022/08/07 05:23:09;;;;;;;11.00;8.43;;;24.40;95.50;;;25.20;59.75;94819.31;5027293;28;20468;-60
2022/08/07 05:25:36;;;;;;;8.90;8.10;;;24.50;95.40;;;25.30;60.05;94821.44;5026671;28;20484;-59
2022/08/07 05:28:04;;;;;;;8.27;7.57;;;24.60;95.20;;;25.39;59.93;94823.59;5024294;28;20913;-59
2022/08/07 05:30:33;;;;;;;10.23;8.07;;;24.70;95.00;;;25.52;59.19;94829.78;5027575;28;20987;-58
2022/08/07 05:33:00;;;;;;;8.20;7.40;;;24.80;95.00;;;25.66;59.02;94823.09;5023864;28;20499;-59
2022/08/07 05:35:29;;;;;;;16.90;8.60;;;25.00;94.90;;;25.83;59.19;94823.19;5025891;28;20502;-58
2022/08/07 05:37:56;;;;;;;17.80;8.90;;;25.10;94.80;;;25.95;58.88;94825.88;5020791;28;20534;-59
2022/08/07 05:40:24;;;;;;;10.83;8.70;;;25.20;94.50;;;26.04;58.34;94831.75;5022296;28;21024;-60
2022/08/07 05:42:51;;;;;;;11.87;9.60;;;25.30;94.20;;;26.13;58.29;94827.63;5017697;28;20473;-59
2022/08/07 05:45:19;;;;;;;11.77;9.93;;;25.40;94.00;;;26.18;58.01;94829.59;5020263;28;20498;-59
2022/08/07 05:47:46;;;;;;;12.13;9.20;;;25.50;93.60;;;26.31;58.21;94840.13;5021209;28;20473;-59
2022/08/07 05:50:13;;;;;;;12.30;8.77;;;25.60;93.70;;;26.56;57.44;94837.09;5020517;28;20576;-60
2022/08/07 05:52:42;;;;;;;14.77;9.00;;;25.80;93.50;;;26.87;56.98;94850.38;5025336;28;20517;-59
2022/08/07 05:55:09;;;;;;;8.73;7.80;;;26.00;93.20;;;27.18;56.31;94846.31;5021377;28;20453;-58
2022/08/07 05:57:37;;;;;;;13.50;8.77;;;26.30;92.70;;;27.50;55.66;94856.59;5020261;28;20911;-60
2022/08/07 06:00:06;;;;;;;8.47;7.10;;;26.60;92.10;;;27.81;55.12;94863.28;5019506;28;20514;-59
2022/08/07 06:02:33;;;;;;;9.40;6.63;;;26.90;91.30;;;28.06;53.96;94860.13;5022390;28;21171;-59
2022/08/07 06:05:03;;;;;;;7.80;7.10;;;27.20;90.60;;;28.31;53.36;94868.84;5019220;28;20489;-60
2022/08/07 06:07:31;;;;;;;7.47;6.47;;;27.40;89.60;;;28.51;52.57;94866.38;5023263;28;20945;-59
2022/08/07 06:09:59;;;;;;;8.60;7.80;;;27.70;88.00;;;28.70;52.41;94874.19;5023573;28;20867;-58
2022/08/07 06:12:27;;;;;;;13.03;7.40;;;27.80;86.80;;;28.90;52.32;94887.13;5023524;28;20467;-60
2022/08/07 06:14:54;;;;;;;7.33;6.63;;;28.00;86.00;;;29.09;51.34;94885.69;5019870;28;20917;-60
2022/08/07 06:17:21;;;;;;;9.83;7.83;;;28.20;84.50;;;29.21;51.21;94876.63;5018824;28;20835;-58
2022/08/07 06:19:48;;;;;;;7.23;6.53;;;28.40;83.10;;;29.31;49.82;94879.41;5019262;28;20457;-58
2022/08/07 06:22:16;;;;;;;8.50;7.50;;;28.50;81.40;;;29.44;49.84;94883.63;5019870;28;20464;-59
2022/08/07 06:24:43;;;;;;;7.80;7.10;;;28.60;80.90;;;29.60;50.00;94881.84;5025423;28;21004;-60
2022/08/07 06:27:22;;;;;;;7.10;6.40;;;28.80;79.40;;;29.80;49.01;94875.78;5024085;28;21063;-62
2022/08/07 06:29:49;;;;;;;6.47;5.97;;;28.90;78.30;;;29.97;48.91;94878.31;5022660;28;20436;-60
2022/08/07 06:32:16;;;;;;;7.47;6.70;;;29.10;76.60;;;30.16;48.22;94867.84;5019854;28;20527;-60
2022/08/07 06:34:43;;;;;;;8.13;7.00;;;29.30;75.40;;;30.34;47.03;94870.09;5021480;28;20436;-59
2022/08/07 06:37:10;;;;;;;13.93;6.20;;;29.50;74.00;;;30.51;47.14;94869.13;5019335;28;20989;-59
2022/08/07 06:39:38;;;;;;;6.00;5.43;;;29.60;73.00;;;30.60;47.09;94870.25;5020097;28;20938;-59
2022/08/07 06:42:08;;;;;;;8.73;7.27;;;29.70;72.10;;;30.70;46.42;94866.75;5025123;28;20836;-59
2022/08/07 06:44:37;;;;;;;7.70;7.00;;;29.80;71.50;;;30.86;46.58;94863.00;5023209;28;20499;-60
2022/08/07 06:47:04;;;;;;;9.70;8.77;;;30.00;71.10;;;30.98;46.20;94867.41;5017768;28;20477;-58
2022/08/07 06:49:31;;;;;;;8.20;7.50;;;30.10;70.30;;;31.13;46.19;94863.91;5019694;28;20206;-60
2022/08/07 06:51:59;;;;;;;8.93;7.20;;;30.20;69.50;;;31.32;45.71;94872.34;5021640;28;20472;-60
2022/08/07 06:54:26;;;;;;;8.13;7.10;;;30.50;69.20;;;31.56;45.21;94864.50;5020717;28;20207;-60
2022/08/07 06:56:54;;;;;;;7.73;7.03;;;30.70;68.20;;;31.79;44.85;94861.22;5021558;28;20228;-59
2022/08/07 06:59:24;;;;;;;7.57;6.57;;;30.80;67.30;;;31.95;44.35;94861.19;5022794;28;20202;-61
2022/08/07 07:01:52;;;;;;;9.73;7.10;;;31.10;66.40;;;32.15;43.38;94866.59;5020663;28;20228;-60
2022/08/07 07:04:19;;;;;;;7.90;7.20;;;31.20;65.00;;;32.33;43.34;94865.19;5019324;28;20226;-60
2022/08/07 07:06:47;;;;;;;8.07;7.13;;;31.40;63.80;;;32.47;42.77;94870.03;5021296;28;20642;-60
2022/08/07 07:09:24;;;;;;;8.00;7.20;;;31.60;63.20;;;32.55;41.74;94865.91;5019737;28;20210;-60
2022/08/07 07:12:11;;;;;;;7.10;6.60;;;31.70;61.60;;;32.56;41.98;94862.09;5022325;28;20237;-60
2022/08/07 07:14:56;;;;;;;7.10;6.40;;;31.70;60.90;;;32.68;40.86;94857.19;5020076;28;20266;-61
2022/08/07 07:17:28;;;;;;;7.37;6.87;;;31.80;58.80;;;32.80;41.43;94863.09;5018766;28;20726;-60
2022/08/07 07:19:58;;;;;;;8.10;7.32;;;31.90;59.70;;;32.80;41.09;94863.09;5020870;28;20198;-59
2022/08/07 07:22:25;;;;;;;7.70;6.93;;;31.90;59.10;;;32.84;41.07;94856.00;5019775;28;20258;-59
2022/08/07 07:24:52;;;;;;;9.60;6.77;;;32.00;58.80;;;33.01;40.88;94866.50;5019901;28;20229;-61
2022/08/07 07:27:20;;;;;;;7.30;6.70;;;32.00;58.40;;;33.19;40.75;94870.53;5021292;28;20275;-59
2022/08/07 07:29:49;;;;;;;10.95;7.35;;;32.20;58.30;;;33.40;39.69;94873.09;5018008;28;20252;-59
2022/08/07 07:32:17;;;;;;;7.47;6.18;;;32.50;56.60;;;33.54;40.32;94871.38;5018812;28;20320;-60
2022/08/07 07:34:47;;;;;;;7.95;6.32;;;32.60;57.40;;;33.75;39.85;94869.28;5020166;28;20592;-59
2022/08/07 07:37:15;;;;;;;8.98;6.97;;;32.80;57.30;;;33.98;39.72;94866.09;5018729;28;20295;-60
2022/08/07 07:39:42;;;;;;;6.82;6.13;;;33.00;57.00;;;34.20;39.29;94876.50;5020631;28;20313;-60
2022/08/07 07:42:10;;;;;;;9.20;6.20;;;33.20;56.50;;;34.40;39.84;94864.59;5019011;28;20699;-59
2022/08/07 07:44:39;;;;;;;6.63;6.03;;;33.40;56.40;;;34.62;39.40;94861.31;5018979;28;20233;-60
2022/08/07 07:47:07;;;;;;;7.03;6.32;;;33.70;55.90;;;34.85;38.39;94867.88;5024158;28;20706;-60
2022/08/07 07:49:34;;;;;;;8.50;7.22;;;33.90;55.10;;;35.07;38.38;94871.94;5023696;28;20212;-59
2022/08/07 07:52:03;;;;;;;8.77;6.07;;;34.10;54.60;;;35.25;38.32;94862.94;5022381;28;20222;-61
2022/08/07 07:54:31;;;;;;;6.38;5.88;;;34.30;53.50;;;35.37;37.03;94867.97;5025184;28;20350;-60
2022/08/07 07:56:58;;;;;;;7.25;6.65;;;34.40;52.30;;;35.43;37.17;94868.69;5023381;28;20587;-60
2022/08/07 07:59:25;;;;;;;6.95;6.32;;;34.50;52.50;;;35.53;36.73;94871.28;5017043;28;20229;-60
2022/08/07 08:01:53;;;;;;;12.55;7.28;;;34.60;52.50;;;35.64;36.92;94870.00;5021433;28;20271;-60
2022/08/07 08:04:20;;;;;;;8.27;7.47;;;34.70;52.20;;;35.74;36.40;94869.00;5022257;28;20247;-60
2022/08/07 08:06:47;;;;;;;7.60;7.00;;;34.80;51.60;;;35.88;36.13;94877.28;5019927;28;20225;-60
2022/08/07 08:09:18;;;;;;;17.05;7.38;;;35.00;50.60;;;36.04;35.35;94877.84;5018019;28;20249;-61
2022/08/07 08:11:45;;;;;;;8.35;7.47;;;35.10;50.60;;;36.01;35.73;94879.25;5022889;28;20721;-60
2022/08/07 08:14:12;;;;;;;7.95;7.25;;;35.20;50.00;;;36.02;35.51;94891.00;5014591;28;20197;-60
2022/08/07 08:16:42;;;;;;;7.78;7.07;;;35.10;49.80;;;36.14;35.48;94877.63;5021792;28;20678;-59
2022/08/07 08:19:12;;;;;;;7.38;6.78;;;35.20;49.80;;;36.26;35.09;94882.66;5020818;28;20259;-61
2022/08/07 08:27:14;;;;;;;8.00;7.30;;;35.10;49.00;;;35.58;35.38;94881.31;5018217;28;20281;-58
2022/08/07 08:29:45;;;;;;;7.53;6.93;;;34.80;49.10;;;35.58;35.48;94884.06;5016587;28;20198;-61
2022/08/07 08:32:15;;;;;;;9.43;7.88;;;34.70;49.40;;;35.82;35.13;94886.69;5023490;28;20253;-60
2022/08/07 08:34:44;;;;;;;10.88;9.70;;;34.90;49.40;;;36.11;34.88;94883.72;5020660;28;20640;-60
2022/08/07 08:37:12;;;;;;;11.25;9.85;;;35.10;49.10;;;36.31;34.16;94882.53;5022833;28;20221;-58
2022/08/07 08:39:41;;;;;;;10.70;9.68;;;35.30;48.50;;;36.34;34.73;94881.13;5018520;28;20213;-62
2022/08/07 08:42:19;;;;;;;12.15;10.27;;;35.40;48.50;;;36.20;34.74;94878.34;5021039;28;20236;-59
2022/08/07 08:44:54;;;;;;;9.55;8.23;;;35.40;48.00;;;36.18;34.34;94883.34;5017942;28;20222;-62
2022/08/07 08:47:26;;;;;;;10.55;8.43;;;35.40;48.00;;;36.33;34.24;94883.06;5021417;28;20670;-61
2022/08/07 08:50:01;;;;;;;12.10;8.85;;;35.50;48.60;;;36.43;33.75;94891.06;5018520;28;20294;-59
2022/08/07 08:52:32;;;;;;;8.73;8.02;;;35.50;47.80;;;36.32;33.94;94884.19;5021955;28;20225;-61
2022/08/07 08:55:05;;;;;;;14.10;7.93;;;35.50;47.70;;;36.14;34.45;94887.78;5019083;28;20205;-60
2022/08/07 08:57:37;;;;;;;12.50;10.35;;;35.40;47.60;;;35.95;34.61;94885.13;5019985;28;20230;-59
2022/08/07 09:00:06;;;;;;;10.00;9.00;;;35.20;47.60;;;35.71;34.45;94884.13;5020428;28;20224;-61
2022/08/07 09:02:41;;;;;;;12.95;9.68;;;35.00;47.90;;;35.51;34.37;94885.25;5016802;28;20664;-59
2022/08/07 09:05:26;;;;;;;10.43;9.45;;;34.80;47.70;;;35.26;35.26;94886.47;5019519;28;20212;-59
2022/08/07 09:07:57;;;;;;;10.20;9.30;;;34.60;48.00;;;35.05;35.83;94880.44;5021915;28;20233;-61
2022/08/07 09:10:28;;;;;;;16.92;9.80;;;34.40;48.60;;;34.96;35.68;94877.53;5018188;28;21079;-60
2022/08/07 09:13:08;;;;;;;10.13;9.23;;;34.20;48.80;;;34.85;35.91;94881.53;5022324;28;20240;-61
2022/08/07 09:15:40;;;;;;;10.85;9.75;;;34.10;48.80;;;34.78;35.62;94872.88;5025058;28;20281;-60
2022/08/07 09:18:23;;;;;;;12.90;9.25;;;34.00;49.00;;;34.95;35.45;94875.94;5026670;28;20633;-59
2022/08/07 09:21:00;;;;;;;8.82;8.13;;;34.10;49.10;;;34.96;35.74;94876.75;5024477;28;20211;-60
2022/08/07 09:23:34;;;;;;;8.00;7.40;;;34.20;49.20;;;35.00;35.59;94866.84;5017948;28;20271;-59
2022/08/07 09:26:18;;;;;;;11.65;7.82;;;34.20;48.60;;;35.26;34.21;94869.22;5021862;28;20694;-62
2022/08/07 09:28:51;;;;;;;9.15;8.25;;;34.30;47.80;;;35.49;33.30;94862.88;5019296;28;20263;-59
2022/08/07 09:31:25;;;;;;;12.27;8.13;;;34.50;46.90;;;35.72;33.30;94863.81;5019454;28;20226;-59
2022/08/07 09:34:05;;;;;;;10.05;8.55;;;34.80;47.10;;;36.00;33.21;94852.97;5022449;28;20584;-59
2022/08/07 09:36:35;;;;;;;8.95;7.82;;;35.00;46.80;;;36.36;33.51;94852.34;5020203;28;20222;-60
2022/08/07 09:39:14;;;;;;;9.55;8.57;;;35.40;47.10;;;36.71;33.28;94847.22;5023758;28;20236;-61
2022/08/07 09:41:46;;;;;;;9.23;8.43;;;35.70;46.70;;;37.08;32.99;94850.03;5024200;28;20225;-60
2022/08/07 09:44:19;;;;;;;13.13;9.32;;;36.00;46.30;;;37.42;32.91;94854.22;5020152;28;20694;-59
2022/08/07 09:47:00;;;;;;;7.57;6.93;;;36.40;46.20;;;37.71;30.89;94842.81;5024809;28;20229;-61
2022/08/07 09:49:40;;;;;;;10.65;7.65;;;36.70;43.50;;;37.78;31.63;94845.91;5023481;28;20632;-61
2022/08/07 09:52:16;;;;;;;7.60;6.38;;;36.80;44.20;;;37.80;30.85;94846.44;5020279;28;20221;-61
2022/08/07 09:54:47;;;;;;;15.05;6.60;;;36.90;42.70;;;37.86;31.11;94847.09;5025395;28;20271;-60
2022/08/07 09:57:59;;;;;;;7.82;6.90;;;37.00;43.40;;;37.93;30.29;94841.16;5023328;28;20236;-60
2022/08/07 10:00:31;;;;;;;9.40;6.40;;;37.10;42.60;;;38.00;30.69;94852.50;5003004;28;20755;-61
2022/08/07 10:03:30;;;;;;;6.97;6.47;;;37.10;42.60;;;37.94;29.96;94845.53;5017493;28;20220;-60
2022/08/07 10:06:27;;;;;;;6.13;5.45;;;37.10;42.10;;;37.82;29.67;94835.94;5026084;28;20213;-59
2022/08/07 10:09:10;;;;;;;6.82;6.32;;;36.90;41.60;;;37.73;30.20;94837.81;5023290;28;20631;-60
2022/08/07 10:11:49;;;;;;;6.93;6.32;;;36.90;42.50;;;37.57;30.15;94834.63;5023028;28;20229;-60
2022/08/07 10:14:34;;;;;;;9.20;6.63;;;36.70;42.00;;;37.38;30.62;94826.56;5020134;28;20190;-61
2022/08/07 10:17:09;;;;;;;30.67;8.10;;;36.60;42.30;;;37.12;30.96;94821.69;5023131;28;20213;-61
2022/08/07 10:19:47;;;;;;;8.80;6.70;;;36.40;42.90;;;36.73;30.90;94822.25;5020283;28;20202;-60
2022/08/07 10:22:38;;;;;;;13.05;7.63;;;36.00;43.00;;;36.31;32.15;94822.28;5022376;28;20232;-61
2022/08/07 10:25:24;;;;;;;7.63;6.82;;;35.70;43.70;;;36.12;32.48;94829.78;5018810;28;20202;-64
2022/08/07 10:28:22;;;;;;;8.18;7.38;;;35.40;44.40;;;35.87;32.97;94829.13;5023608;28;20722;-60
2022/08/07 10:31:21;;;;;;;7.40;6.78;;;35.20;44.70;;;35.53;33.43;94835.72;5021377;28;20194;-62
2022/08/07 10:33:58;;;;;;;7.00;6.35;;;34.80;44.80;;;35.25;32.87;94829.31;5019079;28;20205;-61
2022/08/07 10:36:35;;;;;;;7.70;7.00;;;34.50;45.40;;;35.10;33.46;94828.41;5019022;28;20221;-60